createdAt,value
2018-05-23T00:01:28.465Z,16.60
2018-05-23T00:03:56.769Z,16.50
2018-05-23T00:06:25.120Z,16.50
2018-05-23T00:08:53.431Z,16.40
2018-05-23T00:11:21.699Z,16.30
2018-05-23T00:13:49.999Z,16.20
2018-05-23T00:16:18.336Z,16.20
2018-05-23T00:18:47.763Z,16.10
2018-05-23T00:21:16.027Z,16.00
2018-05-23T00:23:44.305Z,16.00
2018-05-23T00:26:12.620Z,16.00
2018-05-23T00:28:40.900Z,15.90
2018-05-23T00:31:09.246Z,15.90
2018-05-23T00:33:37.542Z,15.80
2018-05-23T00:36:05.838Z,15.80
2018-05-23T00:38:34.163Z,15.80
2018-05-23T00:41:02.496Z,15.70
2018-05-23T00:43:30.768Z,15.70
2018-05-23T00:45:59.079Z,15.70
2018-05-23T00:48:27.356Z,15.60
2018-05-23T00:50:55.651Z,15.60
2018-05-23T00:53:23.931Z,15.50
2018-05-23T00:55:52.275Z,15.50
2018-05-23T00:58:21.316Z,15.40
2018-05-23T01:00:49.629Z,15.30
2018-05-23T01:03:17.928Z,15.30
2018-05-23T01:05:46.224Z,15.20
2018-05-23T01:08:14.560Z,15.20
2018-05-23T01:10:42.874Z,15.10
2018-05-23T01:13:11.156Z,15.10
2018-05-23T01:15:39.491Z,15.10
2018-05-23T01:18:07.900Z,15.00
2018-05-23T01:20:36.960Z,15.00
2018-05-23T01:23:05.237Z,14.90
2018-05-23T01:25:33.517Z,15.00
2018-05-23T01:28:01.835Z,15.00
2018-05-23T01:30:30.116Z,14.90
2018-05-23T01:32:58.430Z,14.90
2018-05-23T01:35:26.736Z,14.90
2018-05-23T01:37:55.797Z,14.80
2018-05-23T01:40:24.122Z,14.80
2018-05-23T01:42:52.459Z,14.80
2018-05-23T01:45:20.761Z,14.80
2018-05-23T01:47:49.084Z,14.80
2018-05-23T01:50:17.375Z,14.80
2018-05-23T01:52:45.692Z,14.70
2018-05-23T01:55:14.014Z,14.70
2018-05-23T01:57:42.320Z,14.80
2018-05-23T02:00:10.605Z,14.70
2018-05-23T02:02:38.898Z,14.80
2018-05-23T02:05:07.160Z,14.70
2018-05-23T02:07:35.444Z,14.80
2018-05-23T02:10:03.791Z,14.80
2018-05-23T02:12:32.058Z,14.80
2018-05-23T02:15:00.352Z,14.80
2018-05-23T02:17:28.630Z,14.80
2018-05-23T02:19:56.895Z,14.80
2018-05-23T02:22:25.212Z,14.90
2018-05-23T02:24:53.459Z,14.90
2018-05-23T02:27:21.763Z,14.90
2018-05-23T02:29:50.808Z,14.90
2018-05-23T02:32:19.084Z,14.90
2018-05-23T02:34:47.511Z,15.00
2018-05-23T02:37:15.800Z,15.00
2018-05-23T02:39:44.116Z,15.00
2018-05-23T02:42:12.524Z,15.00
2018-05-23T02:44:40.807Z,15.00
2018-05-23T02:47:09.105Z,15.00
2018-05-23T02:49:37.375Z,15.00
2018-05-23T02:52:05.665Z,15.00
2018-05-23T02:54:33.923Z,14.90
2018-05-23T02:57:02.244Z,14.90
2018-05-23T02:59:30.520Z,14.80
2018-05-23T03:01:58.811Z,14.70
2018-05-23T03:04:27.085Z,14.70
2018-05-23T03:06:55.394Z,14.70
2018-05-23T03:09:23.721Z,14.70
2018-05-23T03:11:52.028Z,14.60
2018-05-23T03:14:20.352Z,14.60
2018-05-23T03:16:49.429Z,14.60
2018-05-23T03:19:17.738Z,14.50
2018-05-23T03:21:46.787Z,14.50
2018-05-23T03:24:15.175Z,14.50
2018-05-23T03:26:43.456Z,14.60
2018-05-23T03:29:11.763Z,14.60
2018-05-23T03:31:40.069Z,14.60
2018-05-23T03:34:08.396Z,14.60
2018-05-23T03:36:37.507Z,14.60
2018-05-23T03:39:06.556Z,14.60
2018-05-23T03:41:34.848Z,14.60
2018-05-23T03:44:03.147Z,14.70
2018-05-23T03:46:31.484Z,14.70
2018-05-23T03:48:59.796Z,14.70
2018-05-23T03:51:28.852Z,14.80
2018-05-23T03:53:57.184Z,14.70
2018-05-23T03:56:26.227Z,14.90
2018-05-23T03:58:54.522Z,14.80
2018-05-23T04:01:34.616Z,15.00
2018-05-23T04:04:15.119Z,15.00
2018-05-23T04:09:40.763Z,15.10
2018-05-23T04:12:09.042Z,15.10
2018-05-23T04:14:37.340Z,15.20
2018-05-23T04:17:06.394Z,15.30
2018-05-23T04:19:34.680Z,15.30
2018-05-23T04:22:02.944Z,15.40
2018-05-23T04:24:31.231Z,15.40
2018-05-23T04:26:59.515Z,15.50
2018-05-23T04:29:27.787Z,15.50
2018-05-23T04:31:56.080Z,15.60
2018-05-23T04:34:24.361Z,15.60
2018-05-23T04:36:52.636Z,15.70
2018-05-23T04:39:21.046Z,15.70
2018-05-23T04:41:49.317Z,15.70
2018-05-23T04:44:17.604Z,15.80
2018-05-23T04:46:45.931Z,15.90
2018-05-23T04:49:14.179Z,15.90
2018-05-23T04:51:42.464Z,16.10
2018-05-23T04:54:10.758Z,16.20
2018-05-23T04:56:40.547Z,16.20
2018-05-23T04:59:08.871Z,16.20
2018-05-23T05:01:37.924Z,16.40
2018-05-23T05:04:06.200Z,16.30
2018-05-23T05:06:34.487Z,16.40
2018-05-23T05:09:02.812Z,16.40
2018-05-23T05:11:31.068Z,16.50
2018-05-23T05:13:59.393Z,16.50
2018-05-23T05:16:27.703Z,16.60
2018-05-23T05:18:55.988Z,16.70
2018-05-23T05:21:24.284Z,16.80
2018-05-23T05:23:53.349Z,16.80
2018-05-23T05:26:21.643Z,16.80
2018-05-23T05:28:50.750Z,16.80
2018-05-23T05:31:19.792Z,16.90
2018-05-23T05:33:48.072Z,16.90
2018-05-23T05:36:16.356Z,17.00
2018-05-23T05:38:44.659Z,17.10
2018-05-23T05:41:12.907Z,17.10
2018-05-23T05:43:41.180Z,17.10
2018-05-23T05:46:09.471Z,17.20
2018-05-23T05:48:37.756Z,17.30
2018-05-23T05:51:06.052Z,17.30
2018-05-23T05:53:34.386Z,17.30
2018-05-23T05:56:02.640Z,17.40
2018-05-23T05:58:30.922Z,17.50
2018-05-23T06:00:59.215Z,17.50
2018-05-23T06:03:27.515Z,17.60
2018-05-23T06:05:56.590Z,17.80
2018-05-23T06:08:24.891Z,17.80
2018-05-23T06:10:53.155Z,17.90
2018-05-23T06:13:21.650Z,18.00
2018-05-23T06:15:50.696Z,18.20
2018-05-23T06:18:18.975Z,18.10
2018-05-23T06:20:47.241Z,18.10
2018-05-23T06:23:15.534Z,18.20
2018-05-23T06:25:43.798Z,18.30
2018-05-23T06:28:12.111Z,18.50
2018-05-23T06:30:40.380Z,18.60
2018-05-23T06:33:08.665Z,18.70
2018-05-23T06:35:36.956Z,18.70
2018-05-23T06:38:05.229Z,18.70
2018-05-23T06:40:33.519Z,18.80
2018-05-23T06:43:02.615Z,19.00
2018-05-23T06:45:32.007Z,19.10
2018-05-23T06:48:01.048Z,19.20
2018-05-23T06:50:29.340Z,19.20
2018-05-23T06:52:58.484Z,19.40
2018-05-23T06:55:27.544Z,19.70
2018-05-23T06:57:55.831Z,19.60
2018-05-23T07:00:25.648Z,20.00
2018-05-23T07:02:54.033Z,20.00
2018-05-23T07:05:22.294Z,20.20
2018-05-23T07:07:52.092Z,20.50
2018-05-23T07:10:20.395Z,20.50
2018-05-23T07:12:48.695Z,20.70
2018-05-23T07:15:17.766Z,20.90
2018-05-23T07:17:46.826Z,20.80
2018-05-23T07:20:15.082Z,20.80
2018-05-23T07:22:43.358Z,20.90
2018-05-23T07:25:11.659Z,21.00
2018-05-23T07:27:39.935Z,21.10
2018-05-23T07:30:08.227Z,21.30
2018-05-23T07:32:36.513Z,21.40
2018-05-23T07:35:04.798Z,21.60
2018-05-23T07:37:33.064Z,21.80
2018-05-23T07:40:01.350Z,22.00
2018-05-23T07:42:29.706Z,22.20
2018-05-23T07:44:58.006Z,22.30
2018-05-23T07:47:27.069Z,22.60
2018-05-23T07:49:55.354Z,22.50
2018-05-23T07:52:26.413Z,22.90
2018-05-23T07:54:54.690Z,22.90
2018-05-23T07:57:23.743Z,23.30
2018-05-23T07:59:52.145Z,23.20
2018-05-23T08:02:20.422Z,23.50
2018-05-23T08:04:48.686Z,23.70
2018-05-23T08:07:16.982Z,23.80
2018-05-23T08:09:45.256Z,24.00
2018-05-23T08:12:13.899Z,24.00
2018-05-23T08:14:42.934Z,24.20
2018-05-23T08:17:11.188Z,24.10
2018-05-23T08:19:39.449Z,24.30
2018-05-23T08:22:07.752Z,24.50
2018-05-23T08:24:36.819Z,24.70
2018-05-23T08:27:05.145Z,24.60
2018-05-23T08:29:33.524Z,24.70
2018-05-23T08:32:01.796Z,24.90
2018-05-23T08:34:30.060Z,25.10
2018-05-23T08:36:58.379Z,25.10
2018-05-23T08:39:27.403Z,25.30
2018-05-23T08:41:55.795Z,25.30
2018-05-23T08:44:24.070Z,25.30
2018-05-23T08:46:52.379Z,25.30
2018-05-23T08:49:20.659Z,25.50
2018-05-23T08:51:48.953Z,25.50
2018-05-23T08:54:17.219Z,25.60
2018-05-23T08:56:46.273Z,25.70
2018-05-23T08:59:14.678Z,25.60
2018-05-23T09:01:43.064Z,26.00
2018-05-23T09:04:11.334Z,26.00
2018-05-23T09:06:39.614Z,26.00
2018-05-23T09:09:07.893Z,25.80
2018-05-23T09:11:36.983Z,25.50
2018-05-23T09:14:06.049Z,25.40
2018-05-23T09:16:34.332Z,25.40
2018-05-23T09:19:02.615Z,25.40
2018-05-23T09:21:30.988Z,25.40
2018-05-23T09:23:59.281Z,25.50
2018-05-23T09:26:27.648Z,25.60
2018-05-23T09:28:56.019Z,25.60
2018-05-23T09:31:24.328Z,25.60
2018-05-23T09:33:53.412Z,25.70
2018-05-23T09:36:22.514Z,25.80
2018-05-23T09:38:51.588Z,25.90
2018-05-23T09:41:19.890Z,25.90
2018-05-23T09:43:48.960Z,26.10
2018-05-23T09:46:17.348Z,26.10
2018-05-23T09:48:45.624Z,26.30
2018-05-23T09:51:13.927Z,26.40
2018-05-23T09:53:42.289Z,26.30
2018-05-23T09:56:11.355Z,26.30
2018-05-23T09:58:39.747Z,26.30
2018-05-23T10:01:08.123Z,26.40
2018-05-23T10:03:36.499Z,26.40
2018-05-23T10:06:04.763Z,26.60
2018-05-23T10:08:33.041Z,26.50
2018-05-23T10:11:01.317Z,26.40
2018-05-23T10:13:31.125Z,26.10
2018-05-23T10:15:59.399Z,26.10
2018-05-23T10:18:27.801Z,26.10
2018-05-23T10:20:56.100Z,26.30
2018-05-23T10:23:24.399Z,26.40
2018-05-23T10:25:52.788Z,26.60
2018-05-23T10:28:21.233Z,26.70
2018-05-23T10:30:50.463Z,26.70
2018-05-23T10:33:18.820Z,26.70
2018-05-23T10:35:47.157Z,26.60
2018-05-23T10:38:15.443Z,26.40
2018-05-23T10:40:43.712Z,26.40
2018-05-23T10:43:11.994Z,26.60
2018-05-23T10:45:40.295Z,26.80
2018-05-23T10:48:09.345Z,27.30
2018-05-23T10:50:37.616Z,27.30
2018-05-23T10:53:05.908Z,27.50
2018-05-23T10:55:34.197Z,27.70
2018-05-23T10:58:02.486Z,27.80
2018-05-23T11:00:31.557Z,27.60
2018-05-23T11:02:59.839Z,27.50
2018-05-23T11:05:28.102Z,27.50
2018-05-23T11:07:56.487Z,27.40
2018-05-23T11:10:24.779Z,27.10
2018-05-23T11:12:53.040Z,26.80
2018-05-23T11:15:21.412Z,26.80
2018-05-23T11:17:50.392Z,26.90
2018-05-23T11:20:18.687Z,26.90
2018-05-23T11:22:47.089Z,27.00
2018-05-23T11:25:15.357Z,26.90
2018-05-23T11:27:43.951Z,27.00
2018-05-23T11:30:13.045Z,26.60
2018-05-23T11:32:41.344Z,26.50
2018-05-23T11:35:10.370Z,26.90
2018-05-23T11:37:38.631Z,26.90
2018-05-23T11:40:06.922Z,27.10
2018-05-23T11:42:35.245Z,27.20
2018-05-23T11:45:03.540Z,27.30
2018-05-23T11:47:32.597Z,27.10
2018-05-23T11:50:00.924Z,27.10
2018-05-23T11:52:29.269Z,27.30
2018-05-23T11:54:59.082Z,27.60
2018-05-23T11:57:27.338Z,27.60
2018-05-23T11:59:55.600Z,27.90
2018-05-23T12:02:23.891Z,28.00
2018-05-23T12:04:52.158Z,28.00
2018-05-23T12:07:20.548Z,28.00
2018-05-23T12:09:48.816Z,28.10
2018-05-23T12:12:17.086Z,28.00
2018-05-23T12:14:45.394Z,27.80
2018-05-23T12:17:13.683Z,27.60
2018-05-23T12:19:42.025Z,27.20
2018-05-23T12:22:11.090Z,26.90
2018-05-23T12:24:39.408Z,26.90
2018-05-23T12:27:07.706Z,26.90
2018-05-23T12:29:36.868Z,26.90
2018-05-23T12:32:05.143Z,26.90
2018-05-23T12:34:34.263Z,27.20
2018-05-23T12:37:02.519Z,27.20
2018-05-23T12:39:30.895Z,27.30
2018-05-23T12:41:59.175Z,27.20
2018-05-23T12:44:27.455Z,27.30
2018-05-23T12:46:55.837Z,27.30
2018-05-23T12:49:24.208Z,27.50
2018-05-23T12:51:52.484Z,27.60
2018-05-23T12:54:20.782Z,27.70
2018-05-23T12:56:50.585Z,28.00
2018-05-23T12:59:18.848Z,28.00
2018-05-23T13:01:47.136Z,28.10
2018-05-23T13:04:15.501Z,28.10
2018-05-23T13:06:43.767Z,28.20
2018-05-23T13:09:12.051Z,28.10
2018-05-23T13:11:40.341Z,28.20
2018-05-23T13:14:08.620Z,27.90
2018-05-23T13:16:36.902Z,27.80
2018-05-23T13:19:05.188Z,27.80
2018-05-23T13:21:33.462Z,27.90
2018-05-23T13:24:02.532Z,27.80
2018-05-23T13:26:30.843Z,27.70
2018-05-23T13:28:59.864Z,27.70
2018-05-23T13:31:28.181Z,27.70
2018-05-23T13:33:56.452Z,27.60
2018-05-23T13:36:24.750Z,27.40
2018-05-23T13:38:53.066Z,27.30
2018-05-23T13:41:21.282Z,27.40
2018-05-23T13:43:49.578Z,27.10
2018-05-23T13:46:17.859Z,27.00
2018-05-23T13:48:46.927Z,26.70
2018-05-23T13:51:15.215Z,26.70
2018-05-23T13:53:43.484Z,26.70
2018-05-23T13:56:11.744Z,26.90
2018-05-23T13:58:40.039Z,27.00
2018-05-23T14:01:08.308Z,27.10
2018-05-23T14:03:36.604Z,27.10
2018-05-23T14:06:04.877Z,27.20
2018-05-23T14:08:33.135Z,27.50
2018-05-23T14:11:01.431Z,27.50
2018-05-23T14:13:29.725Z,27.30
2018-05-23T14:15:57.979Z,27.30
2018-05-23T14:18:26.257Z,27.40
2018-05-23T14:20:54.515Z,27.30
2018-05-23T14:23:22.811Z,27.20
2018-05-23T14:25:51.181Z,27.20
2018-05-23T14:28:19.475Z,27.30
2018-05-23T14:30:47.727Z,27.20
2018-05-23T14:33:16.024Z,27.10
2018-05-23T14:35:44.461Z,27.20
2018-05-23T14:38:12.767Z,27.10
2018-05-23T14:40:41.056Z,27.20
2018-05-23T14:43:09.308Z,27.30
2018-05-23T14:45:37.711Z,27.30
2018-05-23T14:48:05.987Z,27.20
2018-05-23T14:50:34.365Z,27.20
2018-05-23T14:53:03.448Z,27.40
2018-05-23T14:55:31.717Z,27.30
2018-05-23T14:58:00.003Z,27.40
2018-05-23T15:00:28.296Z,27.30
2018-05-23T15:02:56.595Z,27.30
2018-05-23T15:05:24.852Z,27.40
2018-05-23T15:07:53.140Z,27.60
2018-05-23T15:10:21.441Z,27.60
2018-05-23T15:12:49.691Z,27.70
2018-05-23T15:15:18.013Z,28.00
2018-05-23T15:17:47.052Z,28.60
2018-05-23T15:20:15.308Z,28.60
2018-05-23T15:22:43.608Z,28.90
2018-05-23T15:25:11.979Z,28.90
2018-05-23T15:27:40.339Z,29.10
2018-05-23T15:30:08.678Z,29.10
2018-05-23T15:32:36.975Z,28.90
2018-05-23T15:35:05.240Z,29.20
2018-05-23T15:37:33.511Z,29.70
2018-05-23T15:40:02.594Z,30.40
2018-05-23T15:42:30.899Z,30.30
2018-05-23T15:44:59.158Z,30.80
2018-05-23T15:47:27.479Z,30.60
2018-05-23T15:49:56.496Z,30.90
2018-05-23T15:52:24.779Z,30.80
2018-05-23T15:54:53.059Z,31.10
2018-05-23T15:57:21.360Z,30.80
2018-05-23T15:59:50.467Z,31.30
2018-05-23T16:02:18.823Z,31.30
2018-05-23T16:04:47.083Z,31.90
2018-05-23T16:07:15.344Z,32.40
2018-05-23T16:09:43.639Z,32.70
2018-05-23T16:12:12.028Z,33.10
2018-05-23T16:14:40.402Z,33.80
2018-05-23T16:17:08.655Z,34.60
2018-05-23T16:19:37.724Z,35.00
2018-05-23T16:22:06.109Z,35.00
2018-05-23T16:24:34.391Z,35.00
2018-05-23T16:27:03.455Z,34.90
2018-05-23T16:29:31.768Z,34.80
2018-05-23T16:32:00.119Z,34.90
2018-05-23T16:34:28.382Z,35.10
2018-05-23T16:36:56.775Z,35.00
2018-05-23T16:39:25.053Z,34.90
2018-05-23T16:41:53.355Z,35.00
2018-05-23T16:44:23.237Z,35.90
2018-05-23T16:46:52.954Z,36.30
2018-05-23T16:49:21.332Z,36.30
2018-05-23T16:51:49.601Z,36.50
2018-05-23T16:54:17.909Z,36.10
2018-05-23T16:56:46.163Z,35.70
2018-05-23T16:59:14.546Z,34.90
2018-05-23T17:01:42.800Z,34.60
2018-05-23T17:04:11.051Z,34.80
2018-05-23T17:06:39.377Z,35.00
2018-05-23T17:09:07.671Z,35.20
2018-05-23T17:11:36.030Z,35.30
2018-05-23T17:14:04.208Z,35.40
2018-05-23T17:16:33.244Z,34.70
2018-05-23T17:19:01.609Z,34.70
2018-05-23T17:21:29.876Z,34.70
2018-05-23T17:23:58.231Z,35.10
2018-05-23T17:26:26.519Z,35.10
2018-05-23T17:28:54.802Z,35.00
2018-05-23T17:31:23.856Z,34.30
2018-05-23T17:33:52.139Z,34.20
2018-05-23T17:36:20.415Z,34.10
2018-05-23T17:38:48.804Z,34.30
2018-05-23T17:41:17.060Z,34.20
2018-05-23T17:43:45.463Z,34.10
2018-05-23T17:46:13.752Z,33.70
2018-05-23T17:48:42.134Z,32.90
2018-05-23T17:51:10.400Z,32.10
2018-05-23T17:53:38.769Z,31.20
2018-05-23T17:56:07.040Z,30.20
2018-05-23T17:58:35.342Z,29.60
2018-05-23T18:01:03.614Z,28.90
2018-05-23T18:03:31.884Z,28.30
2018-05-23T18:06:00.195Z,27.60
2018-05-23T18:08:28.514Z,27.10
2018-05-23T18:10:57.523Z,26.20
2018-05-23T18:13:26.955Z,25.70
2018-05-23T18:15:56.391Z,25.40
2018-05-23T18:18:24.820Z,25.30
2018-05-23T18:20:53.138Z,25.20
2018-05-23T18:23:21.443Z,25.00
2018-05-23T18:25:49.754Z,24.90
2018-05-23T18:28:18.030Z,24.70
2018-05-23T18:30:46.301Z,24.50
2018-05-23T18:33:14.667Z,24.40
2018-05-23T18:35:42.955Z,24.30
2018-05-23T18:38:11.241Z,24.20
2018-05-23T18:40:40.329Z,24.00
2018-05-23T18:43:09.640Z,23.80
2018-05-23T18:45:39.451Z,23.50
2018-05-23T18:48:07.704Z,23.50
2018-05-23T18:50:35.980Z,23.40
2018-05-23T18:53:05.799Z,23.00
2018-05-23T18:55:34.084Z,22.90
2018-05-23T18:58:02.355Z,22.90
2018-05-23T19:00:31.564Z,22.60
2018-05-23T19:03:00.657Z,22.50
2018-05-23T19:05:28.969Z,22.40
2018-05-23T19:07:57.304Z,22.30
2018-05-23T19:10:25.691Z,22.20
2018-05-23T19:12:53.984Z,22.10
2018-05-23T19:15:22.249Z,22.00
2018-05-23T19:17:50.536Z,21.90
2018-05-23T19:20:18.807Z,21.80
2018-05-23T19:22:47.096Z,21.70
2018-05-23T19:25:15.363Z,21.60
2018-05-23T19:27:43.655Z,21.60
2018-05-23T19:30:11.964Z,21.50
2018-05-23T19:32:41.008Z,21.30
2018-05-23T19:35:09.326Z,21.20
2018-05-23T19:37:37.589Z,21.20
2018-05-23T19:40:05.976Z,21.10
2018-05-23T19:42:34.248Z,21.00
2018-05-23T19:45:02.548Z,21.00
2018-05-23T19:47:30.912Z,20.90
2018-05-23T19:49:59.859Z,20.80
2018-05-23T19:52:28.132Z,20.70
2018-05-23T19:54:56.403Z,20.70
2018-05-23T19:57:24.679Z,20.60
2018-05-23T19:59:52.980Z,20.50
2018-05-23T20:02:21.249Z,20.50
2018-05-23T20:04:49.646Z,20.40
2018-05-23T20:07:18.027Z,20.40
2018-05-23T20:09:46.322Z,20.30
2018-05-23T20:12:14.612Z,20.30
2018-05-23T20:14:42.960Z,20.20
2018-05-23T20:17:11.270Z,20.20
2018-05-23T20:19:40.316Z,20.10
2018-05-23T20:22:08.900Z,20.00
2018-05-23T20:24:37.187Z,20.00
2018-05-23T20:27:05.467Z,20.00
2018-05-23T20:29:33.750Z,19.90
2018-05-23T20:32:02.009Z,19.90
2018-05-23T20:34:30.268Z,19.80
2018-05-23T20:36:59.317Z,19.70
2018-05-23T20:39:28.728Z,19.70
2018-05-23T20:41:57.016Z,19.60
2018-05-23T20:44:25.279Z,19.60
2018-05-23T20:46:53.656Z,19.60
2018-05-23T20:49:21.944Z,19.50
2018-05-23T20:51:51.016Z,19.40
2018-05-23T20:54:19.309Z,19.40
2018-05-23T20:56:47.571Z,19.30
2018-05-23T20:59:15.876Z,19.30
2018-05-23T21:01:44.949Z,19.20
2018-05-23T21:04:13.210Z,19.10
2018-05-23T21:06:41.481Z,19.20
2018-05-23T21:09:09.892Z,19.00
2018-05-23T21:11:38.271Z,19.00
2018-05-23T21:14:07.360Z,18.90
2018-05-23T21:16:35.612Z,18.80
2018-05-23T21:19:03.958Z,18.80
2018-05-23T21:21:32.240Z,18.70
2018-05-23T21:24:00.468Z,18.70
2018-05-23T21:26:28.737Z,18.60
2018-05-23T21:28:57.018Z,18.60
2018-05-23T21:31:25.347Z,18.50
2018-05-23T21:33:53.616Z,18.50
2018-05-23T21:36:22.648Z,18.40
2018-05-23T21:38:50.920Z,18.40
2018-05-23T21:41:19.225Z,18.40
2018-05-23T21:43:47.504Z,18.30
2018-05-23T21:46:16.903Z,18.20
2018-05-23T21:48:45.192Z,18.10
2018-05-23T21:51:13.553Z,18.20
2018-05-23T21:53:41.844Z,18.10
2018-05-23T21:56:10.880Z,18.00
2018-05-23T21:58:39.179Z,17.90
2018-05-23T22:01:07.433Z,18.00
2018-05-23T22:03:35.696Z,17.90
2018-05-23T22:06:03.988Z,17.90
2018-05-23T22:08:32.289Z,17.80
2018-05-23T22:11:00.596Z,17.80
2018-05-23T22:13:28.927Z,17.80
2018-05-23T22:15:57.245Z,17.70
2018-05-23T22:18:25.499Z,17.60
2018-05-23T22:20:53.755Z,17.60
2018-05-23T22:23:22.025Z,17.60
2018-05-23T22:25:50.313Z,17.60
2018-05-23T22:28:18.590Z,17.50
2018-05-23T22:30:46.901Z,17.40
2018-05-23T22:33:15.984Z,17.40
2018-05-23T22:35:44.227Z,17.30
2018-05-23T22:38:12.499Z,17.40
2018-05-23T22:40:40.820Z,17.30
2018-05-23T22:43:09.202Z,17.30
2018-05-23T22:45:37.460Z,17.30
2018-05-23T22:48:05.752Z,17.20
2018-05-23T22:50:34.040Z,17.20
2018-05-23T22:53:02.322Z,17.20
2018-05-23T22:55:31.359Z,17.10
2018-05-23T22:57:59.619Z,17.00
2018-05-23T23:00:27.900Z,17.00
2018-05-23T23:02:56.209Z,17.00
2018-05-23T23:05:24.478Z,17.00
2018-05-23T23:07:53.580Z,16.90
2018-05-23T23:10:21.854Z,16.90
2018-05-23T23:12:50.096Z,16.90
2018-05-23T23:15:18.363Z,16.80
2018-05-23T23:17:47.461Z,16.80
2018-05-23T23:20:15.795Z,16.70
2018-05-23T23:22:44.071Z,16.70
2018-05-23T23:25:12.343Z,16.70
2018-05-23T23:27:40.634Z,16.70
2018-05-23T23:30:09.703Z,16.70
2018-05-23T23:32:37.982Z,16.60
2018-05-23T23:35:06.269Z,16.60
2018-05-23T23:37:34.534Z,16.60
2018-05-23T23:40:02.815Z,16.60
2018-05-23T23:42:31.199Z,16.50
2018-05-23T23:44:59.456Z,16.50
2018-05-23T23:47:27.769Z,16.50
2018-05-23T23:49:56.031Z,16.50
2018-05-23T23:52:24.301Z,16.40
2018-05-23T23:54:52.585Z,16.40
2018-05-23T23:57:20.872Z,16.40
2018-05-23T23:59:49.168Z,16.30
